Airfield :
LOGIN :

Register | Disclaimer

   EN    FR    IT 

 










Legend :    VFR   Marginal VFR   IFR   Intensive IFR   Very Intensive IFR
Visi :
Ceiling :
>= 8 km
>= 3000ft
5 to 8 km
1000 to 3000 ft
1500m to 5 km
500 to 1000 ft
800 to 1500m
200 to 500 ft
< 800m
< 200 ft
Symbols :   Thunderstorms  Fog  Heavy snow  Heavy precipitations  Wind > 20 kt
SIGMETs :     Misc.  Thunderstorms  Icing  Turbulence  Mountain Waves  Volcanic Ashes






- Airport Elevation : 396 ft


LFOZ - Orléans St Denis

CURRENT METAR :
  • 062300Z AUTO 34006KT CAVOK 18/13 Q1026

EXPIRED METARs :
  • 062230Z AUTO 34007KT 320V020 CAVOK 19/12 Q1026
  • 062200Z AUTO 34005KT CAVOK 19/12 Q1026
  • 062130Z AUTO 34004KT CAVOK 19/12 Q1025
  • 062100Z AUTO 36003KT 340V050 CAVOK 20/11 Q1025
  • 062030Z AUTO 36004KT 340V040 CAVOK 21/11 Q1025

TAF N/A



MET'MAP, your aeronautical weather chart ! - Copyright ORBIFLY December 2007 - Disclaimer

ORBIFLY MET'MAP TEAM :

Programming & Development : Alexandra Zaïnal
Original concept : Baudouin d'Aumeries
Technical & hardware support : Manuel Goepfert
Assistance : Marc-Olivier Méhu




SOURCES & CREDITS :

   NOAA